sensor_id;sensor_type;location;lat;lon;timestamp;temperature;humidity
58849;DHT22;44619;51.022;6.818;2023-04-16T00:02:14;9.70;53.20
58849;DHT22;44619;51.022;6.818;2023-04-16T00:04:40;9.70;53.40
58849;DHT22;44619;51.022;6.818;2023-04-16T00:07:06;9.70;53.40
58849;DHT22;44619;51.022;6.818;2023-04-16T00:09:31;9.60;53.40
58849;DHT22;44619;51.022;6.818;2023-04-16T00:11:57;9.60;53.50
58849;DHT22;44619;51.022;6.818;2023-04-16T00:14:22;9.70;53.50
58849;DHT22;44619;51.022;6.818;2023-04-16T00:16:48;9.60;53.50
58849;DHT22;44619;51.022;6.818;2023-04-16T00:19:19;9.60;53.80
58849;DHT22;44619;51.022;6.818;2023-04-16T00:21:45;9.70;53.60
58849;DHT22;44619;51.022;6.818;2023-04-16T00:24:10;9.60;53.70
58849;DHT22;44619;51.022;6.818;2023-04-16T00:26:36;9.70;53.60
58849;DHT22;44619;51.022;6.818;2023-04-16T00:29:01;9.70;53.40
58849;DHT22;44619;51.022;6.818;2023-04-16T00:31:27;9.70;53.30
58849;DHT22;44619;51.022;6.818;2023-04-16T00:33:53;9.80;53.60
58849;DHT22;44619;51.022;6.818;2023-04-16T00:36:19;9.80;53.70
58849;DHT22;44619;51.022;6.818;2023-04-16T00:38:44;9.70;54.20
58849;DHT22;44619;51.022;6.818;2023-04-16T00:41:10;9.90;53.40
58849;DHT22;44619;51.022;6.818;2023-04-16T00:43:35;9.80;53.30
58849;DHT22;44619;51.022;6.818;2023-04-16T00:46:00;9.90;53.20
58849;DHT22;44619;51.022;6.818;2023-04-16T00:48:30;9.90;53.40
58849;DHT22;44619;51.022;6.818;2023-04-16T00:50:57;9.80;53.50
58849;DHT22;44619;51.022;6.818;2023-04-16T00:53:23;9.80;53.50
58849;DHT22;44619;51.022;6.818;2023-04-16T00:55:48;9.90;53.30
58849;DHT22;44619;51.022;6.818;2023-04-16T00:58:15;9.90;53.40
58849;DHT22;44619;51.022;6.818;2023-04-16T01:00:40;9.80;53.60
58849;DHT22;44619;51.022;6.818;2023-04-16T01:03:06;9.80;53.80
58849;DHT22;44619;51.022;6.818;2023-04-16T01:05:31;9.80;53.70
58849;DHT22;44619;51.022;6.818;2023-04-16T01:07:57;9.80;53.60
58849;DHT22;44619;51.022;6.818;2023-04-16T01:10:23;9.80;54.00
58849;DHT22;44619;51.022;6.818;2023-04-16T01:12:50;9.80;53.80
58849;DHT22;44619;51.022;6.818;2023-04-16T01:15:16;9.70;53.80
58849;DHT22;44619;51.022;6.818;2023-04-16T01:17:43;9.70;54.00
58849;DHT22;44619;51.022;6.818;2023-04-16T01:20:08;9.70;54.30
58849;DHT22;44619;51.022;6.818;2023-04-16T01:22:34;9.70;54.60
58849;DHT22;44619;51.022;6.818;2023-04-16T01:24:59;9.70;54.60
58849;DHT22;44619;51.022;6.818;2023-04-16T01:27:25;9.70;54.40
58849;DHT22;44619;51.022;6.818;2023-04-16T01:29:51;9.70;54.40
58849;DHT22;44619;51.022;6.818;2023-04-16T01:32:16;9.70;54.50
58849;DHT22;44619;51.022;6.818;2023-04-16T01:34:42;9.70;54.70
58849;DHT22;44619;51.022;6.818;2023-04-16T01:37:07;9.60;55.00
58849;DHT22;44619;51.022;6.818;2023-04-16T01:39:33;9.60;55.00
58849;DHT22;44619;51.022;6.818;2023-04-16T01:41:59;9.60;54.90
58849;DHT22;44619;51.022;6.818;2023-04-16T01:44:25;9.60;54.90
58849;DHT22;44619;51.022;6.818;2023-04-16T01:46:51;9.70;54.80
58849;DHT22;44619;51.022;6.818;2023-04-16T01:49:16;9.70;54.50
58849;DHT22;44619;51.022;6.818;2023-04-16T01:51:42;9.60;54.70
58849;DHT22;44619;51.022;6.818;2023-04-16T01:54:07;9.60;54.70
58849;DHT22;44619;51.022;6.818;2023-04-16T01:56:33;9.60;54.60
58849;DHT22;44619;51.022;6.818;2023-04-16T01:59:00;9.60;54.90
58849;DHT22;44619;51.022;6.818;2023-04-16T02:01:25;9.60;55.00
58849;DHT22;44619;51.022;6.818;2023-04-16T02:03:51;9.60;54.90
58849;DHT22;44619;51.022;6.818;2023-04-16T02:09:17;9.50;55.20
58849;DHT22;44619;51.022;6.818;2023-04-16T02:11:42;9.50;55.60
58849;DHT22;44619;51.022;6.818;2023-04-16T02:14:08;9.50;55.40
58849;DHT22;44619;51.022;6.818;2023-04-16T02:16:33;9.50;55.70
58849;DHT22;44619;51.022;6.818;2023-04-16T02:18:59;9.60;55.50
58849;DHT22;44619;51.022;6.818;2023-04-16T02:21:24;9.60;55.60
58849;DHT22;44619;51.022;6.818;2023-04-16T02:23:50;9.60;55.50
58849;DHT22;44619;51.022;6.818;2023-04-16T02:26:17;9.60;55.60
58849;DHT22;44619;51.022;6.818;2023-04-16T02:28:42;9.60;55.30
58849;DHT22;44619;51.022;6.818;2023-04-16T02:31:08;9.50;55.40
58849;DHT22;44619;51.022;6.818;2023-04-16T02:33:33;9.60;55.30
58849;DHT22;44619;51.022;6.818;2023-04-16T02:36:00;9.60;55.30
58849;DHT22;44619;51.022;6.818;2023-04-16T02:38:25;9.60;55.10
58849;DHT22;44619;51.022;6.818;2023-04-16T02:40:51;9.60;55.50
58849;DHT22;44619;51.022;6.818;2023-04-16T02:43:16;9.60;56.00
58849;DHT22;44619;51.022;6.818;2023-04-16T02:45:42;9.60;55.40
58849;DHT22;44619;51.022;6.818;2023-04-16T02:48:08;9.60;55.50
58849;DHT22;44619;51.022;6.818;2023-04-16T02:50:35;9.50;55.30
58849;DHT22;44619;51.022;6.818;2023-04-16T02:53:00;9.50;55.30
58849;DHT22;44619;51.022;6.818;2023-04-16T02:55:26;9.60;55.60
58849;DHT22;44619;51.022;6.818;2023-04-16T02:57:53;9.60;55.30
58849;DHT22;44619;51.022;6.818;2023-04-16T03:00:19;9.60;55.30
58849;DHT22;44619;51.022;6.818;2023-04-16T03:02:45;9.60;55.30
58849;DHT22;44619;51.022;6.818;2023-04-16T03:05:10;9.60;55.50
58849;DHT22;44619;51.022;6.818;2023-04-16T03:07:36;9.60;55.50
58849;DHT22;44619;51.022;6.818;2023-04-16T03:10:04;9.60;55.70
58849;DHT22;44619;51.022;6.818;2023-04-16T03:12:29;9.60;55.30
58849;DHT22;44619;51.022;6.818;2023-04-16T03:14:55;9.60;55.50
58849;DHT22;44619;51.022;6.818;2023-04-16T03:17:23;9.60;55.60
58849;DHT22;44619;51.022;6.818;2023-04-16T03:19:49;9.60;55.50
58849;DHT22;44619;51.022;6.818;2023-04-16T03:22:15;9.50;55.60
58849;DHT22;44619;51.022;6.818;2023-04-16T03:24:41;9.50;55.50
58849;DHT22;44619;51.022;6.818;2023-04-16T03:27:06;9.50;56.30
58849;DHT22;44619;51.022;6.818;2023-04-16T03:29:35;9.40;56.40
58849;DHT22;44619;51.022;6.818;2023-04-16T03:32:02;9.50;56.40
58849;DHT22;44619;51.022;6.818;2023-04-16T03:34:27;9.50;56.00
58849;DHT22;44619;51.022;6.818;2023-04-16T03:36:52;9.50;56.00
58849;DHT22;44619;51.022;6.818;2023-04-16T03:39:18;9.50;56.00
58849;DHT22;44619;51.022;6.818;2023-04-16T03:41:44;9.50;55.90
58849;DHT22;44619;51.022;6.818;2023-04-16T03:44:13;9.50;56.00
58849;DHT22;44619;51.022;6.818;2023-04-16T03:46:39;9.50;56.00
58849;DHT22;44619;51.022;6.818;2023-04-16T03:49:05;9.50;56.20
58849;DHT22;44619;51.022;6.818;2023-04-16T03:51:31;9.60;56.00
58849;DHT22;44619;51.022;6.818;2023-04-16T03:53:56;9.50;55.90
58849;DHT22;44619;51.022;6.818;2023-04-16T03:56:22;9.50;56.20
58849;DHT22;44619;51.022;6.818;2023-04-16T03:58:47;9.60;55.90
58849;DHT22;44619;51.022;6.818;2023-04-16T04:01:13;9.60;55.90
58849;DHT22;44619;51.022;6.818;2023-04-16T04:03:38;9.50;55.90
58849;DHT22;44619;51.022;6.818;2023-04-16T04:06:14;9.50;55.80
58849;DHT22;44619;51.022;6.818;2023-04-16T04:08:40;9.60;55.60
58849;DHT22;44619;51.022;6.818;2023-04-16T04:11:05;9.60;55.80
58849;DHT22;44619;51.022;6.818;2023-04-16T04:13:31;9.50;56.00
58849;DHT22;44619;51.022;6.818;2023-04-16T04:15:56;9.60;55.90
58849;DHT22;44619;51.022;6.818;2023-04-16T04:18:21;9.60;55.80
58849;DHT22;44619;51.022;6.818;2023-04-16T04:20:47;9.60;55.90
58849;DHT22;44619;51.022;6.818;2023-04-16T04:23:13;9.50;56.00
58849;DHT22;44619;51.022;6.818;2023-04-16T04:25:38;9.50;55.90
58849;DHT22;44619;51.022;6.818;2023-04-16T04:28:03;9.50;56.30
58849;DHT22;44619;51.022;6.818;2023-04-16T04:30:29;9.50;55.90
58849;DHT22;44619;51.022;6.818;2023-04-16T04:32:54;9.60;55.90
58849;DHT22;44619;51.022;6.818;2023-04-16T04:35:20;9.50;55.90
58849;DHT22;44619;51.022;6.818;2023-04-16T04:37:45;9.60;56.10
58849;DHT22;44619;51.022;6.818;2023-04-16T04:40:14;9.60;55.90
58849;DHT22;44619;51.022;6.818;2023-04-16T04:42:40;9.50;56.10
58849;DHT22;44619;51.022;6.818;2023-04-16T04:45:15;9.40;56.20
58849;DHT22;44619;51.022;6.818;2023-04-16T04:47:40;9.50;56.30
58849;DHT22;44619;51.022;6.818;2023-04-16T04:50:09;9.50;56.50
58849;DHT22;44619;51.022;6.818;2023-04-16T04:52:35;9.40;56.90
58849;DHT22;44619;51.022;6.818;2023-04-16T04:55:00;9.50;56.40
58849;DHT22;44619;51.022;6.818;2023-04-16T04:57:26;9.60;56.20
58849;DHT22;44619;51.022;6.818;2023-04-16T04:59:51;9.50;56.50
58849;DHT22;44619;51.022;6.818;2023-04-16T05:02:22;9.50;56.80
58849;DHT22;44619;51.022;6.818;2023-04-16T05:04:47;9.50;57.00
58849;DHT22;44619;51.022;6.818;2023-04-16T05:07:13;9.50;56.70
58849;DHT22;44619;51.022;6.818;2023-04-16T05:09:38;9.50;56.40
58849;DHT22;44619;51.022;6.818;2023-04-16T05:12:03;9.50;56.50
58849;DHT22;44619;51.022;6.818;2023-04-16T05:14:29;9.40;56.50
58849;DHT22;44619;51.022;6.818;2023-04-16T05:16:55;9.50;56.20
58849;DHT22;44619;51.022;6.818;2023-04-16T05:19:20;9.50;56.40
58849;DHT22;44619;51.022;6.818;2023-04-16T05:21:46;9.60;56.20
58849;DHT22;44619;51.022;6.818;2023-04-16T05:24:11;9.60;56.10
58849;DHT22;44619;51.022;6.818;2023-04-16T05:26:37;9.60;56.30
58849;DHT22;44619;51.022;6.818;2023-04-16T05:29:02;9.50;56.40
58849;DHT22;44619;51.022;6.818;2023-04-16T05:31:31;9.50;56.40
58849;DHT22;44619;51.022;6.818;2023-04-16T05:33:56;9.60;56.10
58849;DHT22;44619;51.022;6.818;2023-04-16T05:36:23;9.60;56.40
58849;DHT22;44619;51.022;6.818;2023-04-16T05:38:49;9.70;56.00
58849;DHT22;44619;51.022;6.818;2023-04-16T05:41:14;9.70;56.00
58849;DHT22;44619;51.022;6.818;2023-04-16T05:43:40;9.60;56.20
58849;DHT22;44619;51.022;6.818;2023-04-16T05:46:05;9.60;56.10
58849;DHT22;44619;51.022;6.818;2023-04-16T05:48:31;9.60;56.20
58849;DHT22;44619;51.022;6.818;2023-04-16T05:50:56;9.70;56.10
58849;DHT22;44619;51.022;6.818;2023-04-16T05:53:22;9.70;56.00
58849;DHT22;44619;51.022;6.818;2023-04-16T05:55:48;9.70;55.70
58849;DHT22;44619;51.022;6.818;2023-04-16T05:58:13;9.70;56.00
58849;DHT22;44619;51.022;6.818;2023-04-16T06:00:39;9.70;56.10
58849;DHT22;44619;51.022;6.818;2023-04-16T06:03:05;9.70;56.10
58849;DHT22;44619;51.022;6.818;2023-04-16T06:05:30;9.70;55.90
58849;DHT22;44619;51.022;6.818;2023-04-16T06:07:59;9.70;55.90
58849;DHT22;44619;51.022;6.818;2023-04-16T06:10:25;9.70;56.00
58849;DHT22;44619;51.022;6.818;2023-04-16T06:12:50;9.70;56.00
58849;DHT22;44619;51.022;6.818;2023-04-16T06:15:16;9.70;55.70
58849;DHT22;44619;51.022;6.818;2023-04-16T06:17:41;9.70;55.70
58849;DHT22;44619;51.022;6.818;2023-04-16T06:20:07;9.70;55.80
58849;DHT22;44619;51.022;6.818;2023-04-16T06:22:32;9.70;55.80
58849;DHT22;44619;51.022;6.818;2023-04-16T06:25:01;9.70;55.80
58849;DHT22;44619;51.022;6.818;2023-04-16T06:27:26;9.70;55.70
58849;DHT22;44619;51.022;6.818;2023-04-16T06:29:52;9.70;55.80
58849;DHT22;44619;51.022;6.818;2023-04-16T06:32:18;9.70;55.70
58849;DHT22;44619;51.022;6.818;2023-04-16T06:34:43;9.80;56.40
58849;DHT22;44619;51.022;6.818;2023-04-16T06:37:09;9.80;55.90
58849;DHT22;44619;51.022;6.818;2023-04-16T06:39:34;9.80;55.80
58849;DHT22;44619;51.022;6.818;2023-04-16T06:42:00;9.80;56.50
58849;DHT22;44619;51.022;6.818;2023-04-16T06:44:25;9.70;55.80
58849;DHT22;44619;51.022;6.818;2023-04-16T06:46:51;9.80;56.10
58849;DHT22;44619;51.022;6.818;2023-04-16T06:49:16;9.80;55.80
58849;DHT22;44619;51.022;6.818;2023-04-16T06:51:42;9.90;55.80
58849;DHT22;44619;51.022;6.818;2023-04-16T06:54:07;9.80;56.00
58849;DHT22;44619;51.022;6.818;2023-04-16T06:56:33;9.90;55.90
58849;DHT22;44619;51.022;6.818;2023-04-16T06:58:59;9.90;56.20
58849;DHT22;44619;51.022;6.818;2023-04-16T07:01:26;9.90;56.10
58849;DHT22;44619;51.022;6.818;2023-04-16T07:03:52;9.90;56.10
58849;DHT22;44619;51.022;6.818;2023-04-16T07:06:18;9.90;56.10
58849;DHT22;44619;51.022;6.818;2023-04-16T07:08:44;9.90;56.40
58849;DHT22;44619;51.022;6.818;2023-04-16T07:11:09;9.80;56.10
58849;DHT22;44619;51.022;6.818;2023-04-16T07:13:35;9.90;56.00
58849;DHT22;44619;51.022;6.818;2023-04-16T07:16:03;10.00;55.90
58849;DHT22;44619;51.022;6.818;2023-04-16T07:18:29;9.90;56.00
58849;DHT22;44619;51.022;6.818;2023-04-16T07:20:54;10.00;56.20
58849;DHT22;44619;51.022;6.818;2023-04-16T07:23:20;10.00;56.00
58849;DHT22;44619;51.022;6.818;2023-04-16T07:25:46;10.10;55.80
58849;DHT22;44619;51.022;6.818;2023-04-16T07:28:11;10.10;55.70
58849;DHT22;44619;51.022;6.818;2023-04-16T07:30:37;10.00;56.10
58849;DHT22;44619;51.022;6.818;2023-04-16T07:33:06;10.00;56.20
58849;DHT22;44619;51.022;6.818;2023-04-16T07:35:31;10.00;55.90
58849;DHT22;44619;51.022;6.818;2023-04-16T07:37:57;10.00;56.00
58849;DHT22;44619;51.022;6.818;2023-04-16T07:40:22;10.00;56.10
58849;DHT22;44619;51.022;6.818;2023-04-16T07:42:48;9.90;56.40
58849;DHT22;44619;51.022;6.818;2023-04-16T07:45:17;10.00;56.30
58849;DHT22;44619;51.022;6.818;2023-04-16T07:47:43;10.00;56.20
58849;DHT22;44619;51.022;6.818;2023-04-16T07:50:10;10.00;56.20
58849;DHT22;44619;51.022;6.818;2023-04-16T07:52:35;10.10;56.00
58849;DHT22;44619;51.022;6.818;2023-04-16T07:55:03;10.10;56.10
58849;DHT22;44619;51.022;6.818;2023-04-16T07:57:29;10.10;55.80
58849;DHT22;44619;51.022;6.818;2023-04-16T07:59:54;10.20;55.80
58849;DHT22;44619;51.022;6.818;2023-04-16T08:02:20;10.20;55.90
58849;DHT22;44619;51.022;6.818;2023-04-16T08:04:45;10.30;55.70
58849;DHT22;44619;51.022;6.818;2023-04-16T08:07:11;10.40;55.60
58849;DHT22;44619;51.022;6.818;2023-04-16T08:09:45;10.40;55.60
